createdAt,value
2022-12-29T00:00:27.617Z,932.54
2022-12-29T00:01:27.557Z,932.54
2022-12-29T00:02:27.624Z,932.62
2022-12-29T00:03:27.744Z,932.63
2022-12-29T00:04:27.614Z,932.62
2022-12-29T00:05:27.628Z,932.64
2022-12-29T00:06:27.664Z,932.69
2022-12-29T00:07:27.661Z,932.74
2022-12-29T00:08:27.670Z,932.78
2022-12-29T00:09:27.699Z,932.79
2022-12-29T00:10:27.703Z,932.84
2022-12-29T00:11:27.717Z,932.87
2022-12-29T00:12:27.741Z,932.87
2022-12-29T00:13:27.768Z,932.91
2022-12-29T00:14:27.766Z,932.90
2022-12-29T00:15:27.790Z,932.93
2022-12-29T00:16:27.875Z,932.95
2022-12-29T00:17:27.820Z,932.95
2022-12-29T00:18:27.832Z,933.01
2022-12-29T00:19:27.855Z,933.07
2022-12-29T00:20:27.865Z,933.08
2022-12-29T00:21:27.899Z,933.12
2022-12-29T00:22:27.923Z,933.13
2022-12-29T00:23:27.924Z,933.13
2022-12-29T00:24:27.930Z,933.07
2022-12-29T00:25:27.950Z,933.03
2022-12-29T00:26:27.958Z,933.03
2022-12-29T00:27:27.979Z,933.01
2022-12-29T00:28:28.001Z,933.05
2022-12-29T00:29:28.007Z,933.04
2022-12-29T00:30:28.023Z,933.06
2022-12-29T00:31:28.072Z,933.07
2022-12-29T00:32:28.055Z,933.04
2022-12-29T00:33:28.072Z,933.03
2022-12-29T00:34:28.097Z,932.99
2022-12-29T00:35:28.113Z,932.98
2022-12-29T00:36:28.129Z,932.92
2022-12-29T00:37:28.145Z,932.93
2022-12-29T00:38:28.393Z,932.93
2022-12-29T00:39:28.177Z,932.94
2022-12-29T00:40:28.207Z,932.92
2022-12-29T00:41:28.209Z,932.92
2022-12-29T00:42:28.237Z,932.90
2022-12-29T00:43:28.244Z,932.91
2022-12-29T00:44:28.255Z,932.87
2022-12-29T00:45:28.267Z,932.85
2022-12-29T00:46:28.319Z,932.86
2022-12-29T00:47:28.305Z,932.87
2022-12-29T00:48:28.317Z,932.87
2022-12-29T00:49:28.328Z,932.87
2022-12-29T00:50:28.355Z,932.86
2022-12-29T00:51:28.387Z,932.82
2022-12-29T00:52:28.392Z,932.86
2022-12-29T00:53:28.400Z,932.85
2022-12-29T00:54:28.439Z,932.86
2022-12-29T00:55:28.436Z,932.82
2022-12-29T00:56:28.443Z,932.83
2022-12-29T00:57:28.456Z,932.80
2022-12-29T00:58:28.483Z,932.81
2022-12-29T00:59:28.490Z,932.76
2022-12-29T01:00:28.594Z,932.79
2022-12-29T01:01:28.751Z,932.80
2022-12-29T01:02:28.675Z,932.80
2022-12-29T01:03:28.564Z,932.80
2022-12-29T01:04:28.577Z,932.80
2022-12-29T01:05:28.602Z,932.78
2022-12-29T01:06:28.601Z,932.80
2022-12-29T01:07:28.624Z,932.78
2022-12-29T01:08:28.642Z,932.78
2022-12-29T01:09:28.651Z,932.74
2022-12-29T01:10:28.695Z,932.75
2022-12-29T01:11:28.680Z,932.78
2022-12-29T01:12:28.704Z,932.75
2022-12-29T01:13:28.713Z,932.76
2022-12-29T01:14:28.755Z,932.77
2022-12-29T01:15:28.747Z,932.75
2022-12-29T01:16:28.823Z,932.75
2022-12-29T01:17:28.785Z,932.75
2022-12-29T01:18:28.804Z,932.79
2022-12-29T01:19:28.816Z,932.77
2022-12-29T01:20:28.826Z,932.79
2022-12-29T01:21:28.849Z,932.77
2022-12-29T01:22:28.879Z,932.73
2022-12-29T01:23:28.894Z,932.68
2022-12-29T01:24:28.900Z,932.62
2022-12-29T01:25:28.917Z,932.63
2022-12-29T01:26:28.957Z,932.61
2022-12-29T01:27:28.939Z,932.54
2022-12-29T01:28:29.161Z,932.53
2022-12-29T01:29:28.981Z,932.49
2022-12-29T01:30:28.992Z,932.48
2022-12-29T01:31:29.123Z,932.48
2022-12-29T01:32:29.023Z,932.50
2022-12-29T01:33:29.041Z,932.50
2022-12-29T01:34:29.060Z,932.49
2022-12-29T01:35:29.067Z,932.45
2022-12-29T01:36:29.081Z,932.49
2022-12-29T01:37:29.110Z,932.50
2022-12-29T01:38:29.128Z,932.46
2022-12-29T01:39:29.166Z,932.43
2022-12-29T01:40:29.181Z,932.44
2022-12-29T01:41:29.176Z,932.36
2022-12-29T01:42:29.210Z,932.32
2022-12-29T01:43:29.200Z,932.26
2022-12-29T01:44:29.212Z,932.24
2022-12-29T01:45:29.378Z,932.22
2022-12-29T01:46:29.267Z,932.17
2022-12-29T01:47:29.283Z,932.14
2022-12-29T01:48:29.272Z,932.14
2022-12-29T01:49:29.296Z,932.15
2022-12-29T01:50:29.312Z,932.12
2022-12-29T01:51:29.321Z,932.13
2022-12-29T01:52:29.337Z,932.12
2022-12-29T01:53:29.370Z,932.12
2022-12-29T01:54:29.383Z,932.12
2022-12-29T01:55:29.395Z,932.07
2022-12-29T01:56:29.401Z,932.09
2022-12-29T01:57:29.428Z,932.07
2022-12-29T01:58:29.551Z,932.05
2022-12-29T01:59:29.457Z,932.00
2022-12-29T02:00:29.472Z,932.01
2022-12-29T02:01:29.676Z,932.00
2022-12-29T02:02:33.194Z,931.96
2022-12-29T02:03:29.679Z,932.02
2022-12-29T02:04:29.534Z,931.96
2022-12-29T02:05:29.549Z,931.93
2022-12-29T02:06:29.563Z,931.94
2022-12-29T02:07:29.574Z,931.95
2022-12-29T02:08:29.590Z,931.94
2022-12-29T02:09:29.605Z,931.90
2022-12-29T02:10:29.628Z,931.88
2022-12-29T02:11:29.650Z,931.85
2022-12-29T02:12:29.660Z,931.89
2022-12-29T02:13:29.680Z,931.86
2022-12-29T02:14:29.720Z,931.88
2022-12-29T02:15:29.701Z,931.82
2022-12-29T02:16:29.884Z,931.81
2022-12-29T02:17:29.747Z,931.78
2022-12-29T02:18:29.758Z,931.74
2022-12-29T02:19:29.766Z,931.70
2022-12-29T02:20:29.783Z,931.64
2022-12-29T02:21:29.810Z,931.61
2022-12-29T02:22:29.817Z,931.56
2022-12-29T02:23:29.835Z,931.54
2022-12-29T02:24:29.853Z,931.54
2022-12-29T02:25:29.862Z,931.54
2022-12-29T02:26:29.883Z,931.56
2022-12-29T02:27:29.895Z,931.57
2022-12-29T02:28:29.909Z,931.52
2022-12-29T02:29:29.943Z,931.56
2022-12-29T02:30:29.979Z,931.60
2022-12-29T02:31:30.072Z,931.62
2022-12-29T02:32:29.979Z,931.64
2022-12-29T02:33:29.993Z,931.60
2022-12-29T02:34:30.017Z,931.62
2022-12-29T02:35:30.021Z,931.55
2022-12-29T02:36:30.034Z,931.52
2022-12-29T02:37:30.047Z,931.50
2022-12-29T02:38:30.072Z,931.50
2022-12-29T02:39:30.089Z,931.49
2022-12-29T02:40:30.110Z,931.44
2022-12-29T02:41:30.119Z,931.46
2022-12-29T02:42:30.149Z,931.42
2022-12-29T02:43:30.149Z,931.39
2022-12-29T02:44:30.169Z,931.34
2022-12-29T02:45:30.246Z,931.31
2022-12-29T02:46:30.223Z,931.33
2022-12-29T02:47:30.243Z,931.33
2022-12-29T02:48:30.233Z,931.31
2022-12-29T02:49:30.249Z,931.25
2022-12-29T02:50:30.264Z,931.30
2022-12-29T02:51:30.283Z,931.25
2022-12-29T02:52:30.286Z,931.27
2022-12-29T02:53:30.310Z,931.25
2022-12-29T02:54:30.332Z,931.26
2022-12-29T02:55:30.347Z,931.28
2022-12-29T02:56:30.358Z,931.27
2022-12-29T02:57:30.378Z,931.27
2022-12-29T02:58:30.382Z,931.26
2022-12-29T02:59:30.405Z,931.25
2022-12-29T03:00:30.413Z,931.24
2022-12-29T03:01:30.567Z,931.27
2022-12-29T03:02:30.631Z,931.27
2022-12-29T03:03:30.512Z,931.24
2022-12-29T03:04:30.483Z,931.17
2022-12-29T03:05:30.499Z,931.20
2022-12-29T03:06:30.507Z,931.15
2022-12-29T03:07:30.529Z,931.17
2022-12-29T03:08:30.540Z,931.14
2022-12-29T03:09:30.564Z,931.17
2022-12-29T03:10:30.572Z,931.14
2022-12-29T03:11:30.593Z,931.17
2022-12-29T03:12:30.603Z,931.11
2022-12-29T03:13:30.827Z,931.14
2022-12-29T03:14:30.643Z,931.08
2022-12-29T03:15:30.659Z,931.10
2022-12-29T03:16:30.747Z,931.10
2022-12-29T03:17:30.686Z,931.10
2022-12-29T03:18:30.733Z,931.06
2022-12-29T03:19:30.716Z,931.01
2022-12-29T03:20:30.737Z,931.03
2022-12-29T03:21:30.744Z,930.97
2022-12-29T03:22:30.767Z,930.96
2022-12-29T03:23:30.783Z,930.98
2022-12-29T03:24:30.797Z,930.96
2022-12-29T03:25:30.812Z,930.96
2022-12-29T03:26:30.831Z,930.93
2022-12-29T03:27:30.839Z,931.02
2022-12-29T03:28:30.855Z,931.01
2022-12-29T03:29:30.876Z,931.04
2022-12-29T03:30:30.955Z,931.03
2022-12-29T03:31:30.901Z,931.04
2022-12-29T03:32:30.928Z,930.99
2022-12-29T03:33:30.948Z,930.99
2022-12-29T03:34:30.972Z,930.96
2022-12-29T03:35:30.974Z,930.92
2022-12-29T03:36:30.983Z,930.92
2022-12-29T03:37:30.999Z,930.92
2022-12-29T03:38:31.021Z,930.92
2022-12-29T03:39:31.038Z,930.91
2022-12-29T03:40:31.045Z,930.91
2022-12-29T03:41:31.074Z,930.93
2022-12-29T03:42:31.079Z,930.93
2022-12-29T03:43:31.089Z,930.83
2022-12-29T03:44:31.114Z,930.82
2022-12-29T03:45:31.133Z,930.79
2022-12-29T03:46:31.285Z,930.83
2022-12-29T03:47:31.163Z,930.76
2022-12-29T03:48:31.170Z,930.80
2022-12-29T03:49:31.194Z,930.77
2022-12-29T03:50:31.229Z,930.79
2022-12-29T03:51:31.216Z,930.75
2022-12-29T03:52:31.240Z,930.74
2022-12-29T03:53:31.246Z,930.77
2022-12-29T03:54:31.278Z,930.75
2022-12-29T03:55:31.285Z,930.76
2022-12-29T03:56:31.305Z,930.79
2022-12-29T03:57:31.322Z,930.79
2022-12-29T03:58:31.326Z,930.77
2022-12-29T03:59:31.349Z,930.76
2022-12-29T04:00:31.367Z,930.71
2022-12-29T04:01:31.525Z,930.67
2022-12-29T04:02:31.724Z,930.66
2022-12-29T04:03:31.495Z,930.63
2022-12-29T04:04:31.421Z,930.56
2022-12-29T04:05:31.439Z,930.59
2022-12-29T04:06:31.472Z,930.55
2022-12-29T04:07:31.467Z,930.56
2022-12-29T04:08:31.485Z,930.57
2022-12-29T04:09:31.499Z,930.53
2022-12-29T04:10:31.526Z,930.55
2022-12-29T04:11:33.432Z,930.54
2022-12-29T04:12:31.555Z,930.50
2022-12-29T04:13:31.569Z,930.53
2022-12-29T04:14:31.609Z,930.50
2022-12-29T04:15:31.661Z,930.49
2022-12-29T04:16:31.617Z,930.51
2022-12-29T04:17:31.628Z,930.48
2022-12-29T04:18:31.644Z,930.47
2022-12-29T04:19:31.659Z,930.50
2022-12-29T04:20:31.680Z,930.38
2022-12-29T04:21:31.702Z,930.38
2022-12-29T04:22:31.726Z,930.40
2022-12-29T04:23:31.720Z,930.37
2022-12-29T04:24:31.742Z,930.40
2022-12-29T04:25:31.753Z,930.38
2022-12-29T04:26:31.780Z,930.36
2022-12-29T04:27:31.781Z,930.32
2022-12-29T04:28:31.810Z,930.31
2022-12-29T04:29:31.823Z,930.32
2022-12-29T04:30:31.833Z,930.32
2022-12-29T04:31:31.885Z,930.33
2022-12-29T04:32:31.871Z,930.29
2022-12-29T04:33:31.880Z,930.29
2022-12-29T04:34:31.896Z,930.26
2022-12-29T04:35:31.914Z,930.28
2022-12-29T04:36:31.924Z,930.28
2022-12-29T04:37:31.951Z,930.30
2022-12-29T04:38:31.980Z,930.34
2022-12-29T04:39:31.987Z,930.39
2022-12-29T04:40:31.993Z,930.41
2022-12-29T04:41:32.009Z,930.39
2022-12-29T04:42:32.017Z,930.39
2022-12-29T04:43:32.037Z,930.37
2022-12-29T04:44:32.054Z,930.37
2022-12-29T04:45:32.071Z,930.37
2022-12-29T04:46:32.110Z,930.36
2022-12-29T04:47:32.101Z,930.46
2022-12-29T04:48:32.121Z,930.41
2022-12-29T04:49:32.127Z,930.34
2022-12-29T04:50:32.144Z,930.38
2022-12-29T04:51:32.165Z,930.38
2022-12-29T04:52:32.184Z,930.33
2022-12-29T04:53:32.204Z,930.33
2022-12-29T04:54:32.225Z,930.30
2022-12-29T04:55:32.225Z,930.28
2022-12-29T04:56:32.255Z,930.30
2022-12-29T04:57:32.259Z,930.30
2022-12-29T04:58:32.275Z,930.33
2022-12-29T04:59:32.305Z,930.28
2022-12-29T05:00:32.306Z,930.26
2022-12-29T05:01:32.544Z,930.25
2022-12-29T05:02:32.561Z,930.26
2022-12-29T05:03:32.423Z,930.31
2022-12-29T05:04:32.382Z,930.33
2022-12-29T05:05:32.383Z,930.35
2022-12-29T05:06:32.400Z,930.37
2022-12-29T05:07:32.422Z,930.38
2022-12-29T05:08:32.427Z,930.34
2022-12-29T05:09:32.448Z,930.31
2022-12-29T05:10:32.493Z,930.28
2022-12-29T05:11:32.481Z,930.31
2022-12-29T05:12:32.500Z,930.28
2022-12-29T05:13:32.517Z,930.28
2022-12-29T05:14:32.518Z,930.27
2022-12-29T05:15:32.542Z,930.29
2022-12-29T05:16:32.644Z,930.27
2022-12-29T05:17:32.569Z,930.24
2022-12-29T05:18:32.584Z,930.22
2022-12-29T05:19:32.601Z,930.20
2022-12-29T05:20:32.608Z,930.15
2022-12-29T05:21:32.629Z,930.13
2022-12-29T05:22:32.646Z,930.13
2022-12-29T05:23:32.668Z,930.15
2022-12-29T05:24:32.680Z,930.15
2022-12-29T05:25:32.690Z,930.14
2022-12-29T05:26:32.725Z,930.16
2022-12-29T05:27:32.721Z,930.20
2022-12-29T05:28:32.743Z,930.19
2022-12-29T05:29:32.760Z,930.22
2022-12-29T05:30:32.776Z,930.23
2022-12-29T05:31:32.804Z,930.21
2022-12-29T05:32:32.805Z,930.19
2022-12-29T05:33:32.818Z,930.19
2022-12-29T05:34:32.839Z,930.16
2022-12-29T05:35:32.857Z,930.15
2022-12-29T05:36:37.477Z,930.12
2022-12-29T05:37:32.887Z,930.11
2022-12-29T05:38:32.900Z,930.14
2022-12-29T05:39:32.911Z,930.12
2022-12-29T05:40:32.932Z,930.18
2022-12-29T05:41:32.938Z,930.18
2022-12-29T05:42:32.985Z,930.27
2022-12-29T05:43:32.977Z,930.32
2022-12-29T05:44:32.991Z,930.40
2022-12-29T05:45:33.009Z,930.40
2022-12-29T05:46:33.080Z,930.47
2022-12-29T05:47:33.033Z,930.47
2022-12-29T05:48:37.893Z,930.52
2022-12-29T05:49:33.071Z,930.54
2022-12-29T05:50:33.093Z,930.49
2022-12-29T05:51:33.097Z,930.48
2022-12-29T05:52:33.118Z,930.50
2022-12-29T05:53:33.132Z,930.51
2022-12-29T05:54:33.149Z,930.52
2022-12-29T05:55:33.271Z,930.59
2022-12-29T05:56:33.180Z,930.59
2022-12-29T05:57:33.207Z,930.59
2022-12-29T05:58:33.237Z,930.59
2022-12-29T05:59:33.233Z,930.57
2022-12-29T06:00:33.323Z,930.60
2022-12-29T06:01:33.354Z,930.67
2022-12-29T06:02:33.480Z,930.66
2022-12-29T06:03:33.483Z,930.68
2022-12-29T06:04:33.296Z,930.68
2022-12-29T06:05:33.313Z,930.71
2022-12-29T06:06:33.340Z,930.75
2022-12-29T06:07:33.350Z,930.74
2022-12-29T06:08:33.569Z,930.76
2022-12-29T06:09:33.382Z,930.80
2022-12-29T06:10:33.402Z,930.80
2022-12-29T06:11:33.414Z,930.83
2022-12-29T06:12:33.423Z,930.84
2022-12-29T06:13:33.434Z,930.84
2022-12-29T06:14:33.478Z,930.91
2022-12-29T06:15:33.475Z,930.89
2022-12-29T06:16:33.522Z,930.88
2022-12-29T06:17:33.499Z,930.94
2022-12-29T06:18:33.524Z,930.90
2022-12-29T06:19:33.541Z,930.89
2022-12-29T06:20:33.564Z,930.93
2022-12-29T06:21:33.577Z,930.90
2022-12-29T06:22:33.584Z,930.89
2022-12-29T06:23:33.591Z,930.95
2022-12-29T06:24:33.610Z,930.94
2022-12-29T06:25:33.629Z,930.97
2022-12-29T06:26:33.649Z,931.02
2022-12-29T06:27:33.682Z,930.98
2022-12-29T06:28:33.681Z,930.99
2022-12-29T06:29:33.687Z,931.00
2022-12-29T06:30:33.718Z,931.02
2022-12-29T06:31:33.729Z,931.02
2022-12-29T06:32:33.740Z,931.01
2022-12-29T06:33:33.755Z,931.03
2022-12-29T06:34:33.775Z,931.09
2022-12-29T06:35:33.785Z,931.11
2022-12-29T06:36:33.802Z,931.09
2022-12-29T06:37:33.809Z,931.07
2022-12-29T06:38:33.831Z,931.04
2022-12-29T06:39:33.846Z,931.03
2022-12-29T06:40:33.862Z,931.02
2022-12-29T06:41:33.884Z,930.99
2022-12-29T06:42:33.900Z,930.97
2022-12-29T06:43:33.909Z,930.99
2022-12-29T06:44:33.923Z,931.02
2022-12-29T06:45:34.007Z,931.06
2022-12-29T06:46:34.001Z,931.06
2022-12-29T06:47:33.981Z,931.06
2022-12-29T06:48:33.978Z,931.08
2022-12-29T06:49:33.995Z,931.08
2022-12-29T06:50:34.017Z,931.07
2022-12-29T06:51:34.037Z,931.09
2022-12-29T06:52:34.041Z,931.09
2022-12-29T06:53:34.056Z,931.10
2022-12-29T06:54:34.080Z,931.14
2022-12-29T06:55:34.092Z,931.10
2022-12-29T06:56:34.115Z,931.10
2022-12-29T06:57:34.128Z,931.08
2022-12-29T06:58:34.147Z,931.07
2022-12-29T06:59:34.171Z,931.04
2022-12-29T07:00:34.172Z,931.08
2022-12-29T07:01:34.274Z,931.08
2022-12-29T07:02:34.379Z,931.11
2022-12-29T07:03:34.233Z,931.11
2022-12-29T07:04:34.233Z,931.13
2022-12-29T07:05:34.244Z,931.20
2022-12-29T07:06:34.261Z,931.22
2022-12-29T07:07:34.300Z,931.27
2022-12-29T07:08:34.296Z,931.29
2022-12-29T07:09:34.308Z,931.33
2022-12-29T07:10:34.329Z,931.35
2022-12-29T07:11:34.345Z,931.39
2022-12-29T07:12:34.399Z,931.40
2022-12-29T07:13:34.390Z,931.37
2022-12-29T07:14:39.175Z,931.41
2022-12-29T07:15:34.406Z,931.41
2022-12-29T07:16:34.504Z,931.43
2022-12-29T07:17:34.427Z,931.45
2022-12-29T07:18:34.470Z,931.43
2022-12-29T07:19:34.462Z,931.44
2022-12-29T07:20:34.480Z,931.43
2022-12-29T07:21:34.493Z,931.40
2022-12-29T07:22:34.513Z,931.38
2022-12-29T07:23:34.534Z,931.37
2022-12-29T07:24:34.536Z,931.35
2022-12-29T07:25:34.551Z,931.34
2022-12-29T07:26:36.594Z,931.37
2022-12-29T07:27:34.593Z,931.34
2022-12-29T07:28:34.799Z,931.30
2022-12-29T07:29:34.624Z,931.36
2022-12-29T07:30:34.630Z,931.30
2022-12-29T07:31:34.735Z,931.36
2022-12-29T07:32:34.679Z,931.33
2022-12-29T07:33:34.696Z,931.33
2022-12-29T07:34:34.733Z,931.35
2022-12-29T07:35:34.704Z,931.36
2022-12-29T07:36:35.012Z,931.41
2022-12-29T07:37:34.739Z,931.44
2022-12-29T07:38:34.770Z,931.45
2022-12-29T07:39:34.795Z,931.44
2022-12-29T07:40:34.788Z,931.43
2022-12-29T07:41:34.805Z,931.44
2022-12-29T07:42:34.813Z,931.42
2022-12-29T07:43:34.836Z,931.45
2022-12-29T07:44:34.856Z,931.44
2022-12-29T07:45:34.905Z,931.50
2022-12-29T07:46:55.651Z,931.50
2022-12-29T07:47:34.905Z,931.52
2022-12-29T07:48:34.906Z,931.54
2022-12-29T07:49:34.922Z,931.56
2022-12-29T07:50:34.964Z,931.64
2022-12-29T07:51:34.952Z,931.66
2022-12-29T07:52:34.967Z,931.70
2022-12-29T07:53:34.987Z,931.69
2022-12-29T07:54:35.010Z,931.66
2022-12-29T07:55:35.026Z,931.64
2022-12-29T07:56:35.026Z,931.65
2022-12-29T07:57:35.070Z,931.67
2022-12-29T07:58:35.070Z,931.70
2022-12-29T07:59:35.089Z,931.70
2022-12-29T08:00:35.103Z,931.74
2022-12-29T08:01:35.243Z,931.77
2022-12-29T08:02:35.257Z,931.78
2022-12-29T08:03:35.169Z,931.78
2022-12-29T08:04:35.154Z,931.79
2022-12-29T08:05:35.179Z,931.80
2022-12-29T08:06:35.210Z,931.83
2022-12-29T08:07:35.214Z,931.82
2022-12-29T08:08:35.226Z,931.79
2022-12-29T08:09:35.237Z,931.82
2022-12-29T08:10:35.244Z,931.84
2022-12-29T08:11:35.473Z,931.85
2022-12-29T08:12:35.280Z,931.88
2022-12-29T08:13:35.299Z,931.85
2022-12-29T08:14:35.312Z,931.87
2022-12-29T08:15:35.385Z,931.88
2022-12-29T08:16:35.395Z,931.87
2022-12-29T08:17:35.369Z,931.89
2022-12-29T08:18:35.365Z,931.88
2022-12-29T08:19:35.395Z,931.89
2022-12-29T08:20:35.401Z,931.89
2022-12-29T08:21:35.421Z,931.88
2022-12-29T08:22:35.451Z,931.93
2022-12-29T08:23:35.468Z,931.96
2022-12-29T08:24:35.473Z,932.00
2022-12-29T08:25:35.482Z,932.05
2022-12-29T08:26:35.489Z,932.05
2022-12-29T08:27:35.514Z,932.06
2022-12-29T08:28:35.581Z,932.09
2022-12-29T08:29:35.564Z,932.12
2022-12-29T08:30:35.577Z,932.12
2022-12-29T08:31:35.689Z,932.11
2022-12-29T08:32:35.590Z,932.09
2022-12-29T08:33:35.612Z,932.13
2022-12-29T08:34:35.621Z,932.14
2022-12-29T08:35:35.636Z,932.14
2022-12-29T08:36:35.665Z,932.18
2022-12-29T08:37:35.672Z,932.20
2022-12-29T08:38:35.710Z,932.25
2022-12-29T08:39:35.708Z,932.23
2022-12-29T08:40:35.712Z,932.25
2022-12-29T08:41:35.739Z,932.20
2022-12-29T08:42:35.743Z,932.21
2022-12-29T08:43:35.772Z,932.24
2022-12-29T08:44:35.813Z,932.27
2022-12-29T08:45:35.789Z,932.26
2022-12-29T08:46:35.909Z,932.24
2022-12-29T08:47:35.811Z,932.31
2022-12-29T08:48:35.844Z,932.33
2022-12-29T08:49:35.854Z,932.35
2022-12-29T08:50:35.866Z,932.33
2022-12-29T08:51:35.885Z,932.36
2022-12-29T08:52:35.901Z,932.37
2022-12-29T08:53:35.911Z,932.39
2022-12-29T08:54:35.961Z,932.45
2022-12-29T08:55:35.937Z,932.44
2022-12-29T08:56:35.963Z,932.47
2022-12-29T08:57:35.968Z,932.49
2022-12-29T08:58:35.994Z,932.46
2022-12-29T08:59:35.999Z,932.49
2022-12-29T09:00:36.030Z,932.47
2022-12-29T09:01:36.102Z,932.46
2022-12-29T09:02:36.232Z,932.44
2022-12-29T09:04:36.272Z,932.42
2022-12-29T09:05:36.101Z,932.41
2022-12-29T09:06:40.150Z,932.44
2022-12-29T09:07:36.125Z,932.45
2022-12-29T09:08:36.144Z,932.41
2022-12-29T09:09:36.158Z,932.42
2022-12-29T09:10:36.204Z,932.44
2022-12-29T09:11:36.193Z,932.47
2022-12-29T09:12:36.901Z,932.52
2022-12-29T09:13:36.221Z,932.56
2022-12-29T09:14:36.229Z,932.56
2022-12-29T09:15:36.389Z,932.59
2022-12-29T09:16:36.318Z,932.51
2022-12-29T09:17:36.280Z,932.56
2022-12-29T09:18:36.296Z,932.54
2022-12-29T09:19:36.730Z,932.56
2022-12-29T09:20:36.321Z,932.57
2022-12-29T09:21:36.347Z,932.60
2022-12-29T09:22:36.363Z,932.55
2022-12-29T09:23:36.376Z,932.56
2022-12-29T09:24:36.390Z,932.57
2022-12-29T09:25:36.404Z,932.60
2022-12-29T09:26:39.324Z,932.61
2022-12-29T09:27:36.435Z,932.64
2022-12-29T09:28:36.457Z,932.67
2022-12-29T09:29:36.467Z,932.65
2022-12-29T09:30:36.478Z,932.65
2022-12-29T09:31:36.542Z,932.73
2022-12-29T09:32:41.932Z,932.75
2022-12-29T09:33:36.532Z,932.81
2022-12-29T09:34:36.536Z,932.80
2022-12-29T09:35:36.549Z,932.83
2022-12-29T09:36:36.577Z,932.92
2022-12-29T09:37:36.589Z,932.91
2022-12-29T09:38:36.619Z,932.85
2022-12-29T09:39:36.620Z,932.81
2022-12-29T09:40:36.624Z,932.85
2022-12-29T09:41:36.651Z,932.83
2022-12-29T09:42:36.685Z,932.88
2022-12-29T09:43:36.702Z,932.91
2022-12-29T09:44:36.687Z,932.90
2022-12-29T09:45:36.706Z,932.87
2022-12-29T09:46:36.798Z,932.86
2022-12-29T09:47:36.734Z,932.88
2022-12-29T09:48:36.758Z,932.87
2022-12-29T09:49:36.764Z,932.91
2022-12-29T09:50:36.780Z,932.92
2022-12-29T09:51:36.801Z,932.94
2022-12-29T09:52:36.818Z,932.93
2022-12-29T09:53:36.837Z,932.94
2022-12-29T09:54:36.852Z,932.95
2022-12-29T09:55:36.865Z,932.97
2022-12-29T09:56:36.875Z,933.01
2022-12-29T09:57:36.888Z,933.00
2022-12-29T09:58:36.934Z,933.05
2022-12-29T09:59:36.920Z,933.06
2022-12-29T10:00:36.979Z,933.07
2022-12-29T10:01:37.125Z,933.08
2022-12-29T10:02:37.225Z,933.11
2022-12-29T10:03:36.980Z,933.08
2022-12-29T10:04:37.025Z,933.10
2022-12-29T10:05:37.031Z,933.06
2022-12-29T10:06:50.209Z,933.08
2022-12-29T10:07:37.053Z,933.15
2022-12-29T10:08:37.067Z,933.15
2022-12-29T10:09:37.075Z,933.17
2022-12-29T10:10:37.092Z,933.17
2022-12-29T10:11:37.109Z,933.17
2022-12-29T10:12:37.131Z,933.17
2022-12-29T10:13:37.131Z,933.17
2022-12-29T10:14:37.180Z,933.17
2022-12-29T10:15:37.180Z,933.19
2022-12-29T10:16:37.292Z,933.22
2022-12-29T10:17:37.201Z,933.26
2022-12-29T10:18:37.214Z,933.32
2022-12-29T10:19:37.229Z,933.35
2022-12-29T10:20:37.243Z,933.35
2022-12-29T10:21:37.265Z,933.37
2022-12-29T10:22:37.273Z,933.35
2022-12-29T10:23:37.295Z,933.36
2022-12-29T10:24:37.300Z,933.36
2022-12-29T10:25:37.327Z,933.43
2022-12-29T10:26:37.347Z,933.44
2022-12-29T10:27:37.358Z,933.50
2022-12-29T10:28:37.445Z,933.49
2022-12-29T10:29:37.386Z,933.54
2022-12-29T10:30:37.425Z,933.54
2022-12-29T10:31:37.463Z,933.57
2022-12-29T10:32:37.433Z,933.56
2022-12-29T10:33:37.449Z,933.56
2022-12-29T10:34:37.467Z,933.56
2022-12-29T10:35:37.472Z,933.58
2022-12-29T10:36:37.485Z,933.60
2022-12-29T10:37:37.508Z,933.60
2022-12-29T10:38:37.519Z,933.64
2022-12-29T10:39:37.539Z,933.63
2022-12-29T10:40:37.556Z,933.61
2022-12-29T10:41:37.563Z,933.61
2022-12-29T10:42:37.589Z,933.62
2022-12-29T10:43:37.602Z,933.61
2022-12-29T10:44:37.626Z,933.60
2022-12-29T10:45:37.716Z,933.58
2022-12-29T10:46:37.658Z,933.66
2022-12-29T10:47:37.671Z,933.66
2022-12-29T10:48:37.700Z,933.65
2022-12-29T10:49:37.683Z,933.63
2022-12-29T10:50:37.715Z,933.61
2022-12-29T10:51:37.727Z,933.68
2022-12-29T10:52:37.731Z,933.70
2022-12-29T10:53:37.755Z,933.69
2022-12-29T10:54:37.764Z,933.68
2022-12-29T10:55:37.784Z,933.67
2022-12-29T10:56:37.797Z,933.64
2022-12-29T10:57:37.819Z,933.64
2022-12-29T10:58:37.826Z,933.60
2022-12-29T10:59:37.864Z,933.59
2022-12-29T11:00:37.899Z,933.56
2022-12-29T11:01:38.068Z,933.56
2022-12-29T11:02:38.071Z,933.60
2022-12-29T11:03:37.930Z,933.58
2022-12-29T11:04:38.328Z,933.56
2022-12-29T11:05:37.946Z,933.58
2022-12-29T11:06:37.950Z,933.58
2022-12-29T11:07:37.998Z,933.61
2022-12-29T11:08:37.983Z,933.61
2022-12-29T11:09:42.681Z,933.62
2022-12-29T11:10:38.013Z,933.65
2022-12-29T11:11:38.031Z,933.71
2022-12-29T11:12:38.046Z,933.69
2022-12-29T11:13:39.467Z,933.73
2022-12-29T11:14:38.069Z,933.70
2022-12-29T11:15:38.084Z,933.70
2022-12-29T11:16:38.200Z,933.76
2022-12-29T11:17:38.122Z,933.74
2022-12-29T11:18:38.323Z,933.75
2022-12-29T11:19:41.145Z,933.73
2022-12-29T11:20:38.180Z,933.71
2022-12-29T11:21:38.180Z,933.72
2022-12-29T11:22:38.193Z,933.70
2022-12-29T11:23:38.234Z,933.66
2022-12-29T11:24:38.230Z,933.64
2022-12-29T11:25:38.234Z,933.65
2022-12-29T11:26:38.255Z,933.63
2022-12-29T11:27:38.273Z,933.61
2022-12-29T11:28:38.283Z,933.59
2022-12-29T11:29:38.313Z,933.60
2022-12-29T11:30:38.314Z,933.59
2022-12-29T11:31:38.402Z,933.61
2022-12-29T11:32:38.352Z,933.60
2022-12-29T11:33:38.367Z,933.59
2022-12-29T11:34:38.394Z,933.63
2022-12-29T11:35:38.402Z,933.60
2022-12-29T11:36:38.414Z,933.61
2022-12-29T11:37:38.432Z,933.61
2022-12-29T11:38:38.445Z,933.63
2022-12-29T11:39:38.455Z,933.64
2022-12-29T11:40:38.468Z,933.65
2022-12-29T11:41:38.496Z,933.61
2022-12-29T11:42:38.518Z,933.65
2022-12-29T11:43:38.516Z,933.64
2022-12-29T11:44:38.529Z,933.66
2022-12-29T11:45:38.634Z,933.63
2022-12-29T11:46:38.654Z,933.67
2022-12-29T11:47:38.579Z,933.69
2022-12-29T11:48:38.601Z,933.72
2022-12-29T11:49:38.606Z,933.74
2022-12-29T11:50:38.664Z,933.72
2022-12-29T11:51:38.638Z,933.72
2022-12-29T11:52:38.662Z,933.67
2022-12-29T11:53:38.677Z,933.68
2022-12-29T11:54:38.691Z,933.64
2022-12-29T11:55:38.702Z,933.69
2022-12-29T11:56:41.125Z,933.65
2022-12-29T11:57:38.730Z,933.64
2022-12-29T11:58:38.760Z,933.64
2022-12-29T11:59:38.786Z,933.67
2022-12-29T12:00:38.775Z,933.70
2022-12-29T12:01:38.812Z,933.75
2022-12-29T12:02:43.070Z,933.78
2022-12-29T12:03:38.966Z,933.75
2022-12-29T12:04:38.843Z,933.80
2022-12-29T12:05:38.849Z,933.80
2022-12-29T12:06:38.885Z,933.85
2022-12-29T12:07:38.890Z,933.91
2022-12-29T12:08:38.916Z,933.97
2022-12-29T12:09:38.923Z,933.98
2022-12-29T12:10:38.941Z,933.95
2022-12-29T12:11:39.061Z,933.89
2022-12-29T12:12:38.960Z,933.87
2022-12-29T12:13:38.976Z,933.84
2022-12-29T12:14:39.007Z,933.80
2022-12-29T12:15:44.891Z,933.78
2022-12-29T12:16:39.034Z,933.78
2022-12-29T12:17:39.047Z,933.85
2022-12-29T12:18:39.062Z,933.83
2022-12-29T12:19:39.072Z,933.83
2022-12-29T12:20:39.108Z,933.83
2022-12-29T12:21:44.877Z,933.82
2022-12-29T12:22:39.162Z,933.80
2022-12-29T12:23:39.135Z,933.78
2022-12-29T12:24:39.147Z,933.76
2022-12-29T12:25:39.199Z,933.75
2022-12-29T12:26:39.180Z,933.81
2022-12-29T12:27:39.200Z,933.81
2022-12-29T12:28:39.216Z,933.82
2022-12-29T12:29:39.230Z,933.87